Lago Blanco, Argentina
Current Conditions -  °F | °C
As of 7:00 AM on Saturday 22 Nov 2014 (Local Time) from SCBA Reporting Station
Overcast Overcast  
Wind Chill: 41°   Ceiling: 4900
Heat Index: 46°   Visibility: 6mi
Dew Point: 39°   Wind: 13mph
Humidity: 76%   Direction: 300°WNW
Pressure: 29.83"   Gusts: NA
Location:  45.94°S, 71.27°W
Report Text: SCBA 221000Z AUTO 30011KT 270V330 9999 FEW033 SCT043 OVC049 08/04 Q1010
Loading
Personal Weather Stations






























Interactive Weather Map New forecast layout! Learn more

10-Day Weather Forecast

Advertisements
Track Severe Weather on mobile